디시인사이드 갤러리

갤러리 이슈박스, 최근방문 갤러리

갤러리 본문 영역

방갤이 방갤하는 중앱에서 작성

여7ㅣ찌갤로그로 이동합니다. 2020.01.20 09:10:48
조회 139 추천 0 댓글 1

추천 비추천

0

고정닉 0

0

원본 첨부파일 1

댓글 영역

전체 리플 0
등록순정렬 기준선택

하단 갤러리 리스트 영역

왼쪽 컨텐츠 영역

갤러리 리스트 영역

갤러리 리스트
번호 제목 글쓴이 작성일 조회 추천
공지 ■■■ 슬기로운 덕질 생활 가이드-아미 편 ■■■ [163] *-*갤로그로 이동합니다. 18.05.31 164469 813
공지 ■■■■■ 방갤 어그로 공지(유입필독) ■■■■■ [112] (*⁰▿⁰*)갤로그로 이동합니다. 17.07.14 40338 353
공지 ★★★★DC 방탄소년단 갤러리 단어장★★★★ [66] (*⁰▿⁰*)갤로그로 이동합니다. 17.08.04 43195 135
공지 ▼▼▼▼ 타갤에 스밍총공 가는 법 / 설리다는 이유 등 ▼▼▼▼ [117] 방갤gay남갤로그로 이동합니다. 17.01.18 37222 333
공지 ■■■■■■■■■ 방탄소년단 갤러리 가이드 ■■■■■■■■■ [532] DC방탄갤갤로그로 이동합니다. 16.01.08 787678 315
공지 ★★★★DC방탄소년단갤러리 단어장★★★★ [104/1] 기뉴(39.7) 13.10.17 133220 252
공지 방탄소년단 관련 내용이 있어야 합니다. [600] 운영자 13.07.02 71697 100
3818199 Kinetic: 움직이는 Manifesto: 선언서 [3] ㅇㅇ(211.36) 01:22 24 0
3818198 친구 들으면 콘때가서 양옆련 어깨동무해야될거같음 [2] 여7ㅣ찌갤로그로 이동합니다. 01:21 33 0
3818197 차라리 게임이면 좋겠지 너무 아프니까 98군번(117.111) 01:21 13 0
3818196 위아위아투게더불렛프뤂 ㅇㅇ갤로그로 이동합니다. 01:20 21 0
3818195 엠티비 그거 녹화를 지금하는거고 방송은 아침7시 [1] ㅇㅇ갤로그로 이동합니다. 01:20 45 0
3818194 그래서 키네틱 매니페스토? 이게 머임 양갱양갤로그로 이동합니다. 01:19 46 0
3818193 진짜 코로나 씨발 [5] 여7ㅣ찌갤로그로 이동합니다. 01:19 105 0
3818192 ㅂㄴㅇ [6] ㅇㅇ갤로그로 이동합니다. 01:17 24 0
3818191 시리우스엑스엠 어디꺼임 키스껀가 [6] notnotNo!갤로그로 이동합니다. 01:16 83 0
3818190 내일주말인데왜자 [6] ㅇㅇ갤로그로 이동합니다. 01:16 71 0
3818189 안되겠음 해특 가야겠음 [4] 여7ㅣ찌갤로그로 이동합니다. 01:16 81 1
3818188 아니 어떻게 태 얼굴에 글자 쓸 생각을 하냐 양갱양갤로그로 이동합니다. 01:16 57 0
3818187 온둥 들으면 들을수록 존좋임 [1] 여7ㅣ찌갤로그로 이동합니다. 01:13 53 0
3818186 이 부분 존나 돌려봄 [1] notnotNo!갤로그로 이동합니다. 01:13 118 0
3818185 문에서 달이 암충일줄 알았는데 [2] ㅇㅇ(211.203) 01:13 124 0
3818184 ㅅㅂ 필터듣고 있었는데 [4] ㅇㅇ갤로그로 이동합니다. 01:12 126 0
3818183 ㅂㄴㅇ [3] lmoelm갤로그로 이동합니다. 01:12 28 0
3818182 아니시발 존나 잔인함 ㅇㅇ갤로그로 이동합니다. 01:09 136 0
3818181 근데 뮤비 하늘 존나 깨끗하지 않냐 [4] 양갱양갤로그로 이동합니다. 01:09 128 0
3818180 갤련들은 어짜피 챌린지 못하잖아 [2] ㅇㅇ갤로그로 이동합니다. 01:09 67 0
3818179 갓직히 쌀국 끌뷰 뜬거 그거 상괸없음 [3] 여7ㅣ찌갤로그로 이동합니다. 01:09 171 0
3818178 가지마 dontwayfromme 2035(59.30) 01:09 31 0
3818177 그래서 챌린지 어디하는건데 [5] 양갱양갤로그로 이동합니다. 01:07 174 0
3818176 따아 여기 제스쳐 댕까리한거봄? [6] 컨셉북-_-7갤로그로 이동합니다. 01:05 190 0
3818175 근데 이거 나만충임? [1] ㅇㅇ(218.234) 01:03 84 0
3818174 의상 시발 [14] 컨셉북-_-7갤로그로 이동합니다. 01:03 413 0
3818173 앨범 듣기 전에 가사부터 봤는데 [1] 양갱양갤로그로 이동합니다. 01:02 129 0
3818172 공식 아미 아니면 콘서트 못간다며? [2] 98군번(117.111) 01:01 125 0
3818171 태 과질 개미쳤노 [8] ㅇㅇ갤로그로 이동합니다. 01:01 317 3
3818170 않이 안무에 ㄹㅇ 틈이 없음 [1] ㅇㅇ갤로그로 이동합니다. 01:00 63 0
3818169 3절 슥 얼빡부터 태 독무까지 씹지림 [3] ㅇㅇ갤로그로 이동합니다. 01:00 193 2
3818168 [프로미스나인갤]❣연검정화 부탁❣신곡 축하왔어요❣(설쉬)지각 아추갤로그로 이동합니다. 00:58 7 0
3818167 친구 들을수록 존나 흐뭇하노 [7] ㅇㅇ(211.203) 00:58 155 1
3818166 정근이 [7] 컨셉북-_-7갤로그로 이동합니다. 00:58 294 0
3818165 한밑천뽑으려 아첨아부하는 무리들 주변에서 버려주소서 elohim . . 2035(59.30) 00:58 19 0
3818164 [워너원고갤]♾봄바람♾이 지나가면 신곡축하로 다시 만나(설x) ㅇㅇ(14.55) 00:57 10 0
3818163 뮤네 포케이로 나오는거 몰랐음? [17] 여7ㅣ찌갤로그로 이동합니다. 00:56 267 0
3818162 누가 낭만이한테 양파망 씌웠냐 [8] notnotNo!갤로그로 이동합니다. 00:56 345 4
3818161 여자끼리 갈만한 해외여행지 TOP 8 ㅇㅇ(85.203) 00:55 37 0
3818160 슥 문들을때마다 롬곡남ㅠ [2] MAPOFTHESOUL:7갤로그로 이동합니다. 00:55 65 0
3818159 이번뮵 4k니까 티네 연결되면 꼭 보셈 [1] ㅇㅇ(122.34) 00:55 75 0
3818158 위불프랑 이터널이랑 이어서 들어보셈 [5] 컨셉북-_-7갤로그로 이동합니다. 00:55 134 0
3818157 저 혹시 소우주 같은 노래 이번에 없나여..? [2] ㅇㅇ(14.32) 00:54 97 0
갤러리 내부 검색
전체게시물 정렬 옵션

오른쪽 컨텐츠 영역

개념글 []

/

    이슈줌NEW

    1/6

    뉴스NEW

    1/3

    힛(HIT)NEW

    그때 그 힛

    1/3

    초개념